LFLLLFLC

Guest
Details From LFLL - Lyon Saint Exupery
To LFLC - Clermont-Ferrand_Auvergne
Flight Number -
Tags decoded
Created
Modified
Stats Distance 87 nm / 161 km
Max Altitude 0 ft / 0 m
Waypoints 5
Social Downloads 1
Likes 0
Share VATSIM

Download

Looking for another format? Having issues loading an existing format? Contact us
Advertisement - Login to hide

Notes

Requested: LFLL SOPAD SULOT LC406 LFLC

Route

LFLL SOPAD SULOT LC406 LFLC

ID Type Via Altitude Latitude Longitude Leg Dist Tot Dist Heading (true) Name
O LFLL APT - 0 ft / 0 m 45.72581˚ 5.09075˚ - 0 nm - Lyon Saint Exupery
SOPAD FIX - 0 ft / 0 m 45.65333˚ 4.20556˚ 37 nm 37 nm 264° / 263° -
SULOT FIX - 0 ft / 0 m 45.60290˚ 3.81521˚ 16 nm 54 nm 260° / 259° -
LC406 FIX - 0 ft / 0 m 45.82056˚ 3.51942˚ 18 nm 72 nm 317° / 316° -
O LFLC APT - 0 ft / 0 m 45.78671˚ 3.16997˚ 14 nm 86 nm 262° / 262° Clermont-Ferrand_Auvergne

Altitude Profile

Advertisement - Login to hide

LFLL

Details ICAO LFLL (LYS)
Name Lyon Saint Exupery
Region France
Timezone Europe/Paris (UTC+2.0)
Stats Elevation 820 ft / 250 m (AMSL)
Location 45.725812° 5.090748°
Runways 2
Magnetic Variation 1.541° E

METAR

LFLL 251700Z 24001KT 9999 FEW051CB BKN160 26/13 Q1015 NOSIG

Decode

TAF

TAF LFLL 251100Z 2512/2618 14005KT CAVOK

Decode

Departure Runways

ID Width Length Bearing (true) Bearing (mag) Surface Threshold Offset Overrun Length
18L 148 ft / 45 m 8,798 ft / 2,682 m 175.13° 173.59° Asphalt 33 ft / 10 m 52 ft / 16 m
18R 148 ft / 45 m 13,149 ft / 4,008 m 175.14° 173.60° Asphalt 16 ft / 5 m 203 ft / 62 m
36L 148 ft / 45 m 13,149 ft / 4,008 m 355.15° 353.61° Asphalt 36 ft / 11 m 151 ft / 46 m
36R 148 ft / 45 m 8,798 ft / 2,682 m 355.13° 353.59° Asphalt 26 ft / 8 m 52 ft / 16 m

LFLC

Details ICAO LFLC (CFE)
Name Clermont-Ferrand_Auvergne
Region France
Timezone Europe/Paris (UTC+2.0)
Stats Elevation 1,089 ft / 332 m (AMSL)
Location 45.786712° 3.169967°
Runways 1
Magnetic Variation 1.034° E

METAR

LFLC 251700Z AUTO 06006KT 9999 FEW049 SCT110 BKN120 22/15 Q1013 BECMG FEW050TCU

Decode

TAF

TAF LFLC 251400Z 2515/2615 VRB03KT 9999 FEW050TCU TEMPO 2515/2517 VRB15G25KT 4000 -TSRA BKN055CB BKN120 BECMG 2519/2521 CAVOK TEMPO 2600/2607 16006KT BECMG 2609/2612 20008KT TEMPO 2613/2615 20015G27KT SCT065TCU

Decode

Destination Runways

ID Width Length Bearing (true) Bearing (mag) Surface Threshold Offset Overrun Length
08 148 ft / 45 m 9,878 ft / 3,011 m 81.95° 80.92° Asphalt 0 ft / 0 m 0 ft / 0 m
26 148 ft / 45 m 9,878 ft / 3,011 m 261.98° 260.95° Asphalt 476 ft / 145 m 0 ft / 0 m

Approach Navaids

Runway Type Ident Frequency Range Bearing (true) Bearing (mag) Slope Elevation
26 Localiser CF 111.10 MHz 27 nm / 50 km 261.98° 260.95° - 1,089 ft / 332 m (AMSL)
26 Glidescope CF 111.10 MHz 27 nm / 50 km 261.98° 260.95° 3.00° 1,089 ft / 332 m (AMSL)
26 DME CF 111.10 MHz 27 nm / 50 km - - - 1,089 ft / 332 m (AMSL)

Popular Alternatives